Aeroporto :
LOGIN :

Iscrizione | Disclaimer

   EN    FR    IT 

 










Sommario :    VFR   VFR Marginale   IFR   IFR Intensivo   IFR Molto Intensivo
Visibilità : 
Base nubi : 
>= 8 km
>= 3000ft
5 / 8 km
1000 / 3000 ft
1500m / 5 km
500 / 1000 ft
800 / 1500m
200 / 500 ft
< 800m
< 200 ft
Simboli :   Temporali  Nebbia  Neve Forte  Precipitazioni Forti  Vento > 20 kt
SIGMETs :   Varie  Temporali  Ghiacco  Turbolenza  Onda orograficha  Ceneri Vulcaniche






- Altitudine del aeroporto : 3 ft
- Codice IATA : EME


EDWE - Emden

ULTIMO METAR :
  • 240720Z AUTO 29009KT 260V320 9999 // SCT019/// BKN023/// 07/04 Q1004

METARs OBSOLETI :
  • 240650Z AUTO 30009KT 9999 // SCT019/// 06/03 Q1005
  • 240620Z AUTO 31011KT 280V340 9999 // OVC017/// 05/03 Q1005
  • 240550Z AUTO 29008KT 9999 // FEW026/// BKN036/// 06/02 Q1005
  • 240520Z AUTO 32007KT 9999 // OVC027/// 05/02 Q1005
  • 240450Z AUTO 30007KT 270V330 9999 // FEW007/// SCT026/// BKN100/// 04/02 Q1005
  • 240420Z AUTO 27007KT 9999 // SCT120/// 03/02 Q1006
  • 240350Z AUTO 28007KT 9999 // FEW035/// BKN085/// BKN110/// 04/02 Q1006
  • 240320Z AUTO 27007KT 9999 // FEW024/// OVC069/// 04/02 Q1006

Previsioni scadute.



MetMap, La meteo Aeronautica in un colpo d'occhio ! - Copyright ORBIFLY Dicembre 2007 - Disclaimer

ORBIFLY MET'MAP TEAM :

Programmazione e sviluppo : Alexandra Zaïnal
Concezione : Baudouin d'Aumeries
Supporto tecnico e logistico : Manuel Goepfert
Aiuto : Marc-Olivier Méhu
Aiuto per la traduzione : Arnaldo La Scala




FONTI E CREDITI :

   NOAA